Time;durP1;ratioP1;P1;durP2;ratioP2;P2;SDS_P1;SDS_P2;PMS_P1;PMS_P2;Temp;Humidity;BMP_temperature;BMP_pressure;BME280_temperature;BME280_humidity;BME280_pressure;Samples;Min_cycle;Max_cycle;Signal;HPM_P1;HPM_P2
2022/12/08 00:01:46;;;;;;;5.43;2.97;;;;;;;-0.34;58.66;92189.00;2051251;69;20286;-74
2022/12/08 00:04:12;;;;;;;7.22;3.15;;;;;;;-0.38;58.70;92183.09;2051253;70;20142;-74
2022/12/08 00:09:27;;;;;;;7.22;3.00;;;;;;;-0.31;59.52;92183.09;2051249;70;20174;-76
2022/12/08 00:12:15;;;;;;;5.63;3.20;;;;;;;-0.33;58.95;92182.16;2051236;70;20152;-75
2022/12/08 00:14:46;;;;;;;5.80;2.92;;;;;;;-0.48;59.59;92171.09;2051233;70;20227;-73
2022/12/08 00:17:14;;;;;;;4.63;2.70;;;;;;;-0.31;59.28;92176.84;2051133;69;20148;-74
2022/12/08 00:19:40;;;;;;;5.38;2.70;;;;;;;-0.20;58.69;92172.94;2050622;70;20166;-73
2022/12/08 00:22:07;;;;;;;8.23;3.17;;;;;;;-0.19;58.44;92168.88;2051053;69;20149;-73
2022/12/08 00:24:38;;;;;;;5.80;2.90;;;;;;;-0.12;58.77;92174.41;2051149;70;20185;-72
2022/12/08 00:27:06;;;;;;;4.82;3.00;;;;;;;-0.10;57.96;92169.06;2051068;69;20162;-73
2022/12/08 00:29:31;;;;;;;6.20;2.97;;;;;;;-0.22;58.67;92176.28;2051016;70;20166;-73
2022/12/08 00:31:57;;;;;;;5.00;2.80;;;;;;;-0.04;58.39;92171.66;2050572;70;20153;-73
2022/12/08 00:34:23;;;;;;;5.82;2.85;;;;;;;-0.15;58.32;92169.25;2051067;70;20491;-72
2022/12/08 00:36:48;;;;;;;5.15;2.80;;;;;;;-0.07;58.90;92165.19;2050932;70;20142;-72
2022/12/08 00:39:15;;;;;;;7.55;2.63;;;;;;;-0.13;59.03;92164.66;2051033;69;20150;-72
2022/12/08 00:44:25;;;;;;;5.85;2.90;;;;;;;-0.29;58.53;92160.41;2051138;70;20150;-72
2022/12/08 00:46:51;;;;;;;4.72;2.50;;;;;;;-0.46;58.53;92149.16;2051140;69;20149;-73
2022/12/08 00:49:18;;;;;;;5.20;2.55;;;;;;;-0.30;58.79;92153.41;2050316;70;20505;-72
2022/12/08 00:51:44;;;;;;;7.05;2.60;;;;;;;-0.27;58.84;92157.84;2050428;69;20209;-72
2022/12/08 00:54:09;;;;;;;6.53;2.75;;;;;;;-0.30;58.23;92148.59;2051085;70;20194;-72
2022/12/08 00:56:36;;;;;;;5.20;2.70;;;;;;;-0.41;58.56;92140.69;2050435;70;20174;-74
2022/12/08 00:59:03;;;;;;;5.43;2.70;;;;;;;-0.38;57.23;92142.34;2051040;70;20151;-73
2022/12/08 01:01:29;;;;;;;6.65;2.38;;;;;;;-0.50;58.25;92144.00;2050820;69;20185;-72
2022/12/08 01:03:54;;;;;;;5.60;2.50;;;;;;;-0.42;58.26;92152.28;2051246;69;20185;-75
2022/12/08 01:06:20;;;;;;;5.80;2.78;;;;;;;-0.50;58.53;92138.47;2050663;70;20220;-72
2022/12/08 01:08:46;;;;;;;3.97;2.13;;;;;;;-0.39;57.77;92140.13;2051057;69;20597;-73
2022/12/08 01:11:14;;;;;;;3.90;2.40;;;;;;;-0.37;58.45;92145.84;2051352;69;20213;-73
2022/12/08 01:13:40;;;;;;;5.85;2.78;;;;;;;-0.42;58.03;92136.44;2051511;70;20610;-73
2022/12/08 01:16:06;;;;;;;5.03;2.60;;;;;;;-0.40;57.90;92146.97;2051443;69;20150;-73
2022/12/08 01:18:32;;;;;;;5.75;2.60;;;;;;;-0.41;57.25;92140.69;2051563;70;20149;-73
2022/12/08 01:21:05;;;;;;;8.43;2.40;;;;;;;-0.51;58.69;92148.78;2051350;70;20150;-73
2022/12/08 01:23:31;;;;;;;5.25;2.20;;;;;;;-0.44;57.62;92139.03;2051816;70;20321;-74
2022/12/08 01:26:05;;;;;;;3.47;2.40;;;;;;;-0.48;57.93;92141.41;2051361;69;20149;-73
2022/12/08 01:28:31;;;;;;;5.35;2.50;;;;;;;-0.52;58.08;92144.56;2051568;69;20249;-72
2022/12/08 01:30:59;;;;;;;4.97;2.28;;;;;;;-0.48;57.62;92151.75;2051363;69;20190;-73
2022/12/08 01:33:25;;;;;;;5.90;2.90;;;;;;;-0.47;58.18;92147.69;2051389;70;20170;-72
2022/12/08 01:35:51;;;;;;;5.00;2.10;;;;;;;-0.44;58.26;92143.81;2051280;70;20491;-74
2022/12/08 01:38:17;;;;;;;3.40;2.22;;;;;;;-0.48;57.82;92138.66;2051215;70;20181;-74
2022/12/08 01:40:42;;;;;;;6.38;2.45;;;;;;;-0.54;57.74;92135.34;2050707;70;20148;-73
2022/12/08 01:43:19;;;;;;;5.05;2.28;;;;;;;-0.43;57.97;92142.53;2051386;69;20162;-73
2022/12/08 01:45:46;;;;;;;4.88;2.42;;;;;;;-0.39;57.45;92140.13;2051514;69;20146;-73
2022/12/08 01:48:24;;;;;;;4.63;2.17;;;;;;;-0.48;58.30;92140.69;2051339;70;20177;-73
2022/12/08 01:50:52;;;;;;;5.97;2.28;;;;;;;-0.52;58.72;92135.53;2051308;69;20195;-73
2022/12/08 01:53:23;;;;;;;5.20;2.38;;;;;;;-0.48;58.66;92135.16;2051243;69;20147;-73
2022/12/08 01:56:01;;;;;;;4.95;2.50;;;;;;;-0.61;58.71;92125.75;2051475;69;20162;-72
2022/12/08 01:58:42;;;;;;;4.75;2.20;;;;;;;-0.59;58.87;92125.22;2051392;70;20201;-73
2022/12/08 02:01:08;;;;;;;3.70;2.28;;;;;;;-0.62;58.76;92127.03;2051303;69;20181;-73
2022/12/08 02:03:46;;;;;;;4.22;2.08;;;;;;;-0.65;57.84;92125.38;2051466;70;20399;-72
2022/12/08 02:06:13;;;;;;;5.28;2.63;;;;;;;-0.62;57.87;92115.25;2051213;69;20380;-72
2022/12/08 02:08:40;;;;;;;5.65;2.53;;;;;;;-0.84;58.92;92122.97;2051243;69;20229;-73
2022/12/08 02:11:10;;;;;;;6.18;2.50;;;;;;;-0.87;58.76;92109.50;2051225;70;20693;-73
2022/12/08 02:13:36;;;;;;;5.65;2.20;;;;;;;-1.06;57.73;92107.81;2051175;70;20296;-73
2022/12/08 02:16:10;;;;;;;5.60;2.40;;;;;;;-1.04;58.88;92112.81;2051195;70;20244;-73
2022/12/08 02:19:00;;;;;;;5.32;2.10;;;;;;;-0.85;57.71;92112.47;2051284;70;20159;-73
2022/12/08 02:21:44;;;;;;;6.15;2.10;;;;;;;-1.05;58.07;92114.84;2051245;70;20162;-73
2022/12/08 02:24:38;;;;;;;4.00;2.28;;;;;;;-1.27;58.46;92098.22;2051634;70;20150;-73
2022/12/08 02:27:31;;;;;;;6.60;2.50;;;;;;;-1.15;58.51;92097.31;2051242;70;20138;-73
2022/12/08 02:30:18;;;;;;;3.47;1.90;;;;;;;-1.04;58.46;92093.47;2051204;70;20150;-73
2022/12/08 02:33:01;;;;;;;3.50;2.03;;;;;;;-1.19;58.74;92101.72;2051412;70;20514;-74
2022/12/08 02:35:49;;;;;;;4.68;2.42;;;;;;;-1.18;59.39;92095.66;2051405;70;20157;-72
2022/12/08 02:38:17;;;;;;;4.63;2.38;;;;;;;-1.11;58.08;92096.94;2051430;70;20154;-74
2022/12/08 02:40:57;;;;;;;4.00;2.30;;;;;;;-1.23;58.78;92098.59;2051255;70;20142;-76
2022/12/08 02:43:56;;;;;;;4.95;2.28;;;;;;;-1.22;58.18;92091.78;2051359;70;20240;-73
2022/12/08 02:46:27;;;;;;;4.47;2.40;;;;;;;-1.14;58.95;92089.78;2051312;70;20165;-73
2022/12/08 02:48:55;;;;;;;4.00;2.30;;;;;;;-1.15;58.13;92096.56;2051541;70;20572;-72
2022/12/08 02:51:21;;;;;;;5.18;2.33;;;;;;;-1.24;59.02;92097.84;2051237;70;20267;-74
2022/12/08 02:53:47;;;;;;;5.10;2.28;;;;;;;-1.34;58.96;92089.34;2051609;70;20138;-74
2022/12/08 02:56:33;;;;;;;4.63;2.20;;;;;;;-1.37;59.04;92082.19;2051689;69;20146;-73
2022/12/08 02:59:09;;;;;;;4.10;2.10;;;;;;;-1.32;59.26;92097.84;2051724;69;20142;-74
2022/12/08 03:01:48;;;;;;;6.38;1.90;;;;;;;-1.51;59.58;92085.63;2051850;70;20209;-73
2022/12/08 03:04:50;;;;;;;7.65;2.38;;;;;;;-1.46;59.42;92081.97;2051705;70;20213;-74
2022/12/08 03:07:34;;;;;;;4.70;2.30;;;;;;;-1.43;59.13;92084.38;2048969;70;20157;-73
2022/12/08 03:10:06;;;;;;;5.68;2.30;;;;;;;-1.47;59.15;92075.69;2051828;69;20150;-74
2022/12/08 03:13:01;;;;;;;4.82;2.45;;;;;;;-1.43;59.20;92080.88;2051768;69;20229;-73
2022/12/08 03:15:30;;;;;;;5.53;2.42;;;;;;;-1.70;59.83;92044.53;2051713;70;20173;-73
2022/12/08 03:17:57;;;;;;;4.28;1.90;;;;;;;-1.81;59.75;92078.72;2051584;69;20170;-73
2022/12/08 03:20:26;;;;;;;5.82;2.35;;;;;;;-1.58;60.13;92070.53;2051737;69;20138;-74
2022/12/08 03:22:55;;;;;;;3.67;2.15;;;;;;;-1.55;59.71;92067.41;2051575;69;20146;-75
2022/12/08 03:25:24;;;;;;;4.78;2.20;;;;;;;-1.48;60.00;92071.47;2051044;70;20570;-73
2022/12/08 03:27:50;;;;;;;3.72;2.35;;;;;;;-1.45;60.00;92064.13;2051053;69;20241;-73
2022/12/08 03:30:16;;;;;;;5.40;2.20;;;;;;;-1.60;59.60;92068.31;2051705;70;20173;-75
2022/12/08 03:32:46;;;;;;;5.13;2.30;;;;;;;-1.78;59.98;92061.09;2051052;70;20154;-72
2022/12/08 03:35:25;;;;;;;4.53;2.17;;;;;;;-2.02;60.59;92065.03;2051715;70;20158;-72
2022/12/08 03:37:51;;;;;;;4.53;2.00;;;;;;;-1.93;60.98;92052.75;2051046;70;20158;-73
2022/12/08 03:40:19;;;;;;;3.72;2.20;;;;;;;-1.88;60.57;92049.84;2051654;70;20131;-72
2022/12/08 03:42:45;;;;;;;4.47;2.20;;;;;;;-1.76;60.44;92049.50;2051657;69;20190;-74
2022/12/08 03:45:10;;;;;;;5.22;2.25;;;;;;;-1.68;60.72;92050.25;2051649;70;20158;-73
2022/12/08 03:47:36;;;;;;;4.13;2.08;;;;;;;-1.72;60.07;92050.63;2051648;69;20161;-73
2022/12/08 03:50:02;;;;;;;2.67;1.60;;;;;;;-1.73;59.50;92051.91;2051844;70;20658;-74
2022/12/08 03:52:27;;;;;;;4.50;1.85;;;;;;;-1.69;59.99;92048.78;2051006;70;20236;-72
2022/12/08 03:54:53;;;;;;;3.45;1.75;;;;;;;-1.77;59.84;92048.03;2051704;70;20158;-74
2022/12/08 03:57:20;;;;;;;3.40;1.88;;;;;;;-1.79;59.96;92048.56;2051711;69;20234;-73
2022/12/08 03:59:46;;;;;;;5.18;1.95;;;;;;;-1.86;59.36;92038.25;2051618;69;20150;-74
2022/12/08 04:02:11;;;;;;;4.47;2.13;;;;;;;-1.94;60.14;92040.22;2051569;69;20200;-76
2022/12/08 04:04:37;;;;;;;9.02;2.00;;;;;;;-1.77;59.60;92043.25;2051550;70;20594;-73
2022/12/08 04:07:03;;;;;;;4.47;1.73;;;;;;;-1.91;59.76;92041.91;2050605;70;20614;-75
2022/12/08 04:09:28;;;;;;;2.80;1.70;;;;;;;-1.90;59.31;92046.88;2051617;69;20154;-73
2022/12/08 04:11:54;;;;;;;3.78;1.98;;;;;;;-2.00;59.94;92039.66;2051551;70;20177;-74
2022/12/08 04:14:19;;;;;;;4.07;1.92;;;;;;;-1.78;59.94;92036.25;2051192;70;20157;-73
2022/12/08 04:16:45;;;;;;;2.53;1.70;;;;;;;-1.76;59.64;92033.69;2050959;70;20193;-75
2022/12/08 04:19:10;;;;;;;3.92;1.80;;;;;;;-1.81;59.09;92032.56;2050915;70;20161;-74
2022/12/08 04:21:36;;;;;;;3.25;1.83;;;;;;;-1.97;59.68;92013.72;2051331;70;20194;-74
2022/12/08 04:24:01;;;;;;;6.72;1.88;;;;;;;-1.82;59.69;92036.59;2051517;70;20225;-75
2022/12/08 04:26:28;;;;;;;6.82;1.92;;;;;;;-2.03;59.52;92040.75;2051686;70;20643;-74
2022/12/08 04:28:53;;;;;;;4.28;2.20;;;;;;;-2.02;60.18;92034.69;2051692;70;20221;-76
2022/12/08 04:31:19;;;;;;;2.97;1.90;;;;;;;-1.88;59.61;92030.53;2051679;70;20173;-74
2022/12/08 04:33:45;;;;;;;4.15;2.17;;;;;;;-1.84;60.01;92036.41;2051436;69;20153;-74
2022/12/08 04:36:11;;;;;;;4.05;2.00;;;;;;;-1.95;59.87;92030.50;2050893;70;20245;-74
2022/12/08 04:38:38;;;;;;;5.25;2.10;;;;;;;-2.01;60.97;92032.69;2051207;70;20184;-74
2022/12/08 04:41:04;;;;;;;5.22;2.03;;;;;;;-1.95;60.36;92030.50;2050944;70;20134;-75
2022/12/08 04:43:29;;;;;;;7.93;2.25;;;;;;;-2.00;60.92;92029.38;2051027;70;20169;-75
2022/12/08 04:45:55;;;;;;;3.75;1.77;;;;;;;-1.97;60.19;92030.28;2051150;69;20162;-72
2022/12/08 04:48:21;;;;;;;3.95;2.33;;;;;;;-2.06;60.34;92039.84;2051086;70;20589;-76
2022/12/08 04:50:46;;;;;;;4.03;2.10;;;;;;;-1.89;60.17;92026.28;2051128;70;20230;-73
2022/12/08 04:53:13;;;;;;;2.92;1.90;;;;;;;-1.95;60.08;92033.25;2051083;70;20157;-74
2022/12/08 04:55:40;;;;;;;5.55;2.42;;;;;;;-2.15;60.67;92027.28;2051090;70;20609;-73
2022/12/08 04:58:06;;;;;;;8.20;2.05;;;;;;;-2.02;60.90;92026.41;2051025;70;20182;-73
2022/12/08 05:00:32;;;;;;;3.10;1.88;;;;;;;-2.01;60.29;92027.16;2050601;70;20146;-73
2022/12/08 05:02:58;;;;;;;4.95;2.15;;;;;;;-1.99;61.14;92030.84;2051197;70;20154;-73
2022/12/08 05:05:23;;;;;;;3.03;1.80;;;;;;;-2.05;60.95;92027.50;2052808;70;20220;-72
2022/12/08 05:07:49;;;;;;;3.88;1.90;;;;;;;-2.20;61.75;92021.91;2051380;69;20181;-73
2022/12/08 05:10:14;;;;;;;3.13;1.83;;;;;;;-2.17;60.32;92018.81;2051267;69;20474;-72
2022/12/08 05:12:40;;;;;;;3.45;1.95;;;;;;;-2.19;60.75;92020.66;2051417;70;20140;-72
2022/12/08 05:15:07;;;;;;;5.28;1.80;;;;;;;-2.13;60.13;92019.19;2051171;70;20150;-71
2022/12/08 05:17:33;;;;;;;3.70;2.30;;;;;;;-2.16;59.94;92020.28;2050776;70;20687;-72
2022/12/08 05:19:59;;;;;;;3.88;1.83;;;;;;;-2.03;59.62;92010.41;2051251;70;20209;-73
2022/12/08 05:22:25;;;;;;;5.85;2.00;;;;;;;-2.10;60.07;92020.88;2051406;69;20490;-73
2022/12/08 05:24:50;;;;;;;5.28;1.90;;;;;;;-2.08;59.36;92023.81;2050207;70;20571;-73
2022/12/08 05:27:16;;;;;;;3.45;1.70;;;;;;;-2.41;60.42;92019.25;2051233;69;20188;-72
2022/12/08 05:29:41;;;;;;;78.30;26.70;;;;;;;-2.43;60.53;92013.53;2051321;70;20141;-73
2022/12/08 05:32:07;;;;;;;19.02;7.25;;;;;;;-2.12;60.57;92004.13;2051263;69;20178;-73
2022/12/08 05:34:32;;;;;;;25.77;10.40;;;;;;;-2.44;60.40;92007.28;2051349;69;20605;-72
2022/12/08 05:36:58;;;;;;;10.23;3.15;;;;;;;-2.48;60.66;91998.63;2051351;69;20158;-72
2022/12/08 05:39:23;;;;;;;8.57;3.78;;;;;;;-2.50;61.11;92001.19;2051294;70;20181;-73
2022/12/08 05:41:49;;;;;;;6.55;3.45;;;;;;;-2.28;60.47;92005.34;2051457;70;20158;-72
2022/12/08 05:44:14;;;;;;;3.92;2.20;;;;;;;-2.24;60.41;91991.97;2051410;69;20150;-73
2022/12/08 05:46:40;;;;;;;4.10;1.70;;;;;;;-2.17;60.09;91998.78;2051436;70;20149;-72
2022/12/08 05:49:06;;;;;;;5.32;2.00;;;;;;;-2.18;60.01;91997.31;2051477;70;20285;-73
2022/12/08 05:51:31;;;;;;;5.97;1.90;;;;;;;-2.22;60.25;91997.66;2051276;69;20138;-74
2022/12/08 05:53:57;;;;;;;5.18;2.20;;;;;;;-2.28;60.77;91999.13;2051372;70;20165;-74
2022/12/08 05:56:23;;;;;;;3.75;2.10;;;;;;;-2.32;59.80;91989.16;2051371;69;20166;-73
2022/12/08 05:58:49;;;;;;;7.72;2.83;;;;;;;-2.33;60.54;91986.97;2051251;70;20252;-72
2022/12/08 06:01:19;;;;;;;5.88;2.72;;;;;;;-2.32;60.57;91988.44;2051284;70;20162;-73
2022/12/08 06:03:44;;;;;;;7.55;3.10;;;;;;;-2.34;61.29;91988.22;2051359;70;20595;-73
2022/12/08 06:06:10;;;;;;;2.95;1.98;;;;;;;-2.27;61.10;91998.56;2050685;70;20235;-74
2022/12/08 06:08:35;;;;;;;5.78;2.20;;;;;;;-2.25;60.42;91998.75;2051371;70;20181;-73
2022/12/08 06:11:01;;;;;;;3.22;1.90;;;;;;;-2.24;61.20;91997.47;2051274;69;20238;-74
2022/12/08 06:13:26;;;;;;;5.90;2.40;;;;;;;-2.33;60.75;91987.69;2051408;70;20195;-72
2022/12/08 06:15:52;;;;;;;25.13;11.23;;;;;;;-2.41;60.52;91984.16;2051299;69;20625;-73
2022/12/08 06:18:18;;;;;;;7.65;2.97;;;;;;;-2.33;60.63;91998.72;2051290;70;20132;-72
2022/12/08 06:20:43;;;;;;;7.53;2.30;;;;;;;-2.24;60.84;91999.50;2051215;69;20602;-75
2022/12/08 06:23:09;;;;;;;5.88;2.10;;;;;;;-2.40;61.67;91998.69;2051268;69;20154;-74
2022/12/08 06:25:34;;;;;;;5.93;2.90;;;;;;;-2.33;61.12;91993.22;2050797;70;20233;-73
2022/12/08 06:28:00;;;;;;;21.50;10.07;;;;;;;-2.42;60.75;91999.22;2051191;69;20177;-74
2022/12/08 06:30:27;;;;;;;11.70;5.00;;;;;;;-2.41;60.75;91994.44;2051290;70;20626;-74
2022/12/08 06:32:53;;;;;;;7.70;2.63;;;;;;;-2.39;60.64;92002.91;2051447;70;20157;-72
2022/12/08 06:35:18;;;;;;;3.45;2.08;;;;;;;-2.36;61.24;92001.81;2051407;70;20151;-75
2022/12/08 06:37:44;;;;;;;7.15;2.40;;;;;;;-2.34;61.00;92002.00;2051113;70;20221;-73
2022/12/08 06:40:10;;;;;;;4.25;2.20;;;;;;;-2.48;61.57;92004.16;2051208;70;20186;-73
2022/12/08 06:42:45;;;;;;;4.47;2.03;;;;;;;-2.50;60.57;92003.22;2051476;70;20252;-73
2022/12/08 06:45:14;;;;;;;9.38;2.60;;;;;;;-2.66;61.27;91999.63;2050782;70;20498;-73
2022/12/08 06:47:40;;;;;;;7.32;3.53;;;;;;;-2.71;61.04;92001.25;2051341;70;20154;-73
2022/12/08 06:50:06;;;;;;;4.18;2.45;;;;;;;-2.46;60.82;91996.09;2051263;70;20146;-74
2022/12/08 06:52:32;;;;;;;2.92;2.20;;;;;;;-2.24;61.04;92003.00;2051198;70;20224;-73
2022/12/08 06:54:57;;;;;;;4.10;1.90;;;;;;;-2.42;60.65;92004.75;2051528;70;20150;-73
2022/12/08 06:57:23;;;;;;;6.45;2.13;;;;;;;-2.30;60.94;91999.63;2051305;70;20271;-74
2022/12/08 06:59:49;;;;;;;3.72;1.73;;;;;;;-2.30;60.61;92005.16;2050630;70;20620;-75
2022/12/08 07:02:16;;;;;;;4.38;2.10;;;;;;;-2.45;61.48;92008.56;2051267;69;20151;-75
2022/12/08 07:04:42;;;;;;;4.95;2.60;;;;;;;-2.40;61.09;92015.94;2051299;70;20150;-74
2022/12/08 07:07:07;;;;;;;12.57;4.32;;;;;;;-2.75;61.04;92011.16;2051212;70;20237;-73
2022/12/08 07:09:33;;;;;;;13.63;4.75;;;;;;;-2.68;61.92;92008.44;2051261;70;20245;-73
2022/12/08 07:11:59;;;;;;;6.90;2.92;;;;;;;-2.54;61.73;92011.84;2051246;70;20571;-74
2022/12/08 07:14:24;;;;;;;4.32;2.17;;;;;;;-2.42;61.13;92015.78;2051184;70;20494;-72
2022/12/08 07:16:51;;;;;;;6.38;2.22;;;;;;;-2.38;60.68;92023.69;2047824;70;20193;-72
2022/12/08 07:19:17;;;;;;;13.10;4.70;;;;;;;-2.42;60.42;92020.53;2051126;70;20178;-72
2022/12/08 07:21:43;;;;;;;10.88;3.70;;;;;;;-2.37;60.19;92019.66;2051052;70;20499;-72
2022/12/08 07:24:08;;;;;;;7.00;2.60;;;;;;;-2.28;59.92;92032.94;2051322;69;20146;-72
2022/12/08 07:26:34;;;;;;;5.80;2.67;;;;;;;-2.47;60.52;92038.72;2051161;70;20137;-77
2022/12/08 07:29:00;;;;;;;7.07;3.40;;;;;;;-2.39;60.61;92025.69;2051107;70;20666;-74
2022/12/08 07:31:27;;;;;;;10.15;4.03;;;;;;;-2.88;61.55;92025.78;2051211;70;20162;-73
2022/12/08 07:33:53;;;;;;;8.88;3.75;;;;;;;-2.62;60.88;92027.59;2051214;70;20139;-76
2022/12/08 07:36:20;;;;;;;12.07;3.97;;;;;;;-2.44;60.80;92025.84;2051002;70;20609;-76
2022/12/08 07:38:46;;;;;;;5.32;3.28;;;;;;;-2.40;60.40;92015.94;2051360;69;20174;-74
2022/12/08 07:41:14;;;;;;;8.98;2.97;;;;;;;-2.39;60.56;92027.72;2051242;70;20150;-74
2022/12/08 07:43:40;;;;;;;7.20;3.05;;;;;;;-2.35;60.52;92017.06;2051833;70;20587;-73
2022/12/08 07:46:06;;;;;;;6.05;3.00;;;;;;;-2.28;60.38;92021.16;2051663;70;20650;-74
2022/12/08 07:48:31;;;;;;;10.00;3.38;;;;;;;-2.35;60.76;92019.84;2051628;70;20240;-73
2022/12/08 07:51:01;;;;;;;9.15;3.50;;;;;;;-2.31;60.44;92012.69;2051552;69;20165;-73
2022/12/08 07:53:27;;;;;;;9.90;3.65;;;;;;;-2.33;60.98;92012.50;2051744;70;20253;-74
2022/12/08 07:55:53;;;;;;;8.60;3.08;;;;;;;-2.32;61.04;92022.25;2051818;69;20161;-73
2022/12/08 07:58:18;;;;;;;8.20;3.42;;;;;;;-2.26;61.11;92015.84;2052114;70;20134;-73
2022/12/08 08:00:44;;;;;;;9.60;3.50;;;;;;;-2.36;61.46;92018.38;2051951;70;20142;-73
2022/12/08 08:03:12;;;;;;;7.70;3.63;;;;;;;-2.30;60.36;92018.94;2052343;69;20479;-76
2022/12/08 08:05:39;;;;;;;9.40;3.70;;;;;;;-2.26;60.22;92024.84;2051683;69;20182;-78
2022/12/08 08:08:05;;;;;;;7.38;3.58;;;;;;;-2.16;60.03;92017.53;2051555;69;20181;-78
2022/12/08 08:10:30;;;;;;;8.20;3.58;;;;;;;-2.30;60.20;92024.44;2051882;70;20586;-75
2022/12/08 08:13:00;;;;;;;11.25;3.90;;;;;;;-2.24;60.56;92016.78;2051562;70;20166;-76
2022/12/08 08:15:26;;;;;;;6.63;3.58;;;;;;;-2.21;60.80;92012.19;2051905;69;20151;-75
2022/12/08 08:17:52;;;;;;;8.13;3.75;;;;;;;-2.30;60.33;92014.16;2051504;69;20165;-76
2022/12/08 08:20:19;;;;;;;7.60;3.80;;;;;;;-2.21;61.19;92007.41;2051684;69;20177;-75
2022/12/08 08:22:46;;;;;;;8.30;3.80;;;;;;;-2.13;59.86;92007.44;2051540;69;20168;-74
2022/12/08 08:25:12;;;;;;;10.93;3.92;;;;;;;-2.12;60.04;92014.41;2051637;70;20582;-73
2022/12/08 08:27:38;;;;;;;7.28;3.30;;;;;;;-2.02;60.05;92015.38;2051676;70;20181;-73
2022/12/08 08:30:07;;;;;;;10.90;3.60;;;;;;;-2.13;60.26;92013.69;2051645;70;20178;-73
2022/12/08 08:32:33;;;;;;;9.10;3.78;;;;;;;-2.11;60.17;92013.13;2051742;69;20142;-77
2022/12/08 08:34:59;;;;;;;5.65;3.25;;;;;;;-2.05;60.81;92019.25;2051681;69;20260;-77
2022/12/08 08:37:26;;;;;;;11.32;3.83;;;;;;;-1.91;60.11;92008.81;2051627;70;20279;-75
2022/12/08 08:39:52;;;;;;;9.23;4.10;;;;;;;-1.86;60.25;92002.38;2051561;69;20153;-75
2022/12/08 08:42:18;;;;;;;11.07;4.70;;;;;;;-1.29;60.24;92002.84;2051552;69;20142;-78
2022/12/08 08:44:43;;;;;;;10.05;4.88;;;;;;;-1.06;59.31;91999.34;2051707;69;20138;-76
2022/12/08 08:47:09;;;;;;;23.17;11.70;;;;;;;-1.23;59.87;92004.72;2051043;70;20178;-77
2022/12/08 08:49:35;;;;;;;17.10;9.38;;;;;;;-1.02;60.63;92008.75;2051552;70;20150;-74
2022/12/08 08:52:00;;;;;;;16.75;7.15;;;;;;;-0.69;60.43;92016.47;2051444;69;20181;-74
2022/12/08 08:54:28;;;;;;;15.82;6.47;;;;;;;-0.13;60.61;92020.03;2051685;69;20181;-76
2022/12/08 08:56:53;;;;;;;14.98;8.35;;;;;;;0.32;58.71;92019.13;2051547;70;20615;-74
2022/12/08 08:59:19;;;;;;;17.63;7.75;;;;;;;0.48;57.59;92017.75;2051589;70;20298;-73
2022/12/08 09:01:45;;;;;;;17.13;7.22;;;;;;;0.81;57.48;92017.00;2051593;70;20237;-74
2022/12/08 09:04:10;;;;;;;17.67;7.25;;;;;;;1.01;56.58;92019.44;2051561;70;20606;-74
2022/12/08 09:06:36;;;;;;;18.65;7.38;;;;;;;0.61;56.67;92016.03;2051419;69;20174;-74
2022/12/08 09:09:02;;;;;;;16.35;9.15;;;;;;;1.17;56.97;92008.97;2051471;69;20150;-76
2022/12/08 09:11:28;;;;;;;14.65;7.43;;;;;;;1.25;54.75;92008.91;2051431;70;20587;-76
2022/12/08 09:13:54;;;;;;;15.38;6.90;;;;;;;1.49;54.54;92007.41;2050913;70;20181;-77
2022/12/08 09:16:20;;;;;;;13.00;6.20;;;;;;;1.65;54.15;92013.53;2051574;70;20559;-78
2022/12/08 09:18:48;;;;;;;15.77;6.68;;;;;;;1.68;53.46;91999.25;2051566;69;20261;-75
2022/12/08 09:21:19;;;;;;;18.60;9.18;;;;;;;1.94;54.30;91997.16;2051213;70;20145;-79
2022/12/08 09:23:44;;;;;;;18.38;7.60;;;;;;;2.46;52.70;91994.28;2051711;69;20137;-76
2022/12/08 09:26:10;;;;;;;13.98;6.95;;;;;;;2.13;52.50;91996.56;2051685;69;20150;-75
2022/12/08 09:28:36;;;;;;;16.65;9.38;;;;;;;1.92;52.94;91997.69;2051413;70;20325;-77
2022/12/08 09:31:02;;;;;;;17.42;8.75;;;;;;;2.79;51.51;91994.78;2051412;69;20154;-76
2022/12/08 09:33:28;;;;;;;22.13;9.77;;;;;;;3.05;50.14;91991.22;2050841;70;20149;-74
2022/12/08 09:35:54;;;;;;;15.15;5.80;;;;;;;2.36;51.39;91980.34;2051563;69;20138;-79
2022/12/08 09:38:19;;;;;;;8.63;4.88;;;;;;;2.40;50.13;91979.94;2051552;69;20143;-79
2022/12/08 09:40:52;;;;;;;8.95;4.20;;;;;;;2.75;51.89;91978.53;2051357;69;20555;-75
2022/12/08 09:43:53;;;;;;;6.05;3.28;;;;;;;3.18;52.00;91976.22;2051336;70;20157;-77
2022/12/08 09:46:20;;;;;;;8.38;3.60;;;;;;;3.23;49.26;91968.91;2049974;70;20590;-76
2022/12/08 09:48:58;;;;;;;8.65;3.60;;;;;;;4.07;49.86;91964.63;2051433;69;20320;-75
2022/12/08 09:51:26;;;;;;;10.52;5.68;;;;;;;4.03;48.72;91964.31;2051167;69;20618;-76
2022/12/08 09:54:14;;;;;;;10.02;5.35;;;;;;;4.60;47.01;91957.22;2050783;70;20547;-76
2022/12/08 09:56:40;;;;;;;9.00;5.03;;;;;;;3.95;47.13;91955.41;2051432;69;20174;-76
2022/12/08 09:59:22;;;;;;;8.70;3.80;;;;;;;5.02;46.01;91945.50;2051272;69;20152;-75
2022/12/08 10:01:50;;;;;;;6.97;3.13;;;;;;;4.41;45.49;91948.91;2051365;69;20161;-76
2022/12/08 10:04:25;;;;;;;7.00;3.60;;;;;;;3.77;47.40;91938.09;2051394;70;20245;-75
2022/12/08 10:07:09;;;;;;;8.80;3.50;;;;;;;4.54;45.54;91937.31;2051273;69;20150;-76
2022/12/08 10:09:53;;;;;;;10.35;4.55;;;;;;;4.47;46.57;91929.81;2050746;70;20138;-76
2022/12/08 10:12:40;;;;;;;14.00;4.93;;;;;;;4.53;46.74;91924.66;2051308;70;20629;-76
2022/12/08 10:15:30;;;;;;;10.18;4.60;;;;;;;5.65;45.34;91920.38;2051574;70;20231;-76
2022/12/08 10:18:00;;;;;;;11.38;3.95;;;;;;;5.87;43.87;91913.44;2051268;70;20250;-76
2022/12/08 10:20:36;;;;;;;8.43;3.60;;;;;;;5.79;43.68;91899.69;2051213;70;20142;-75
2022/12/08 10:23:18;;;;;;;10.63;3.70;;;;;;;6.69;42.53;91896.97;2051243;70;20555;-76
2022/12/08 10:25:48;;;;;;;8.00;3.17;;;;;;;7.05;40.83;91889.34;2051260;70;20166;-74
2022/12/08 10:28:14;;;;;;;17.48;5.43;;;;;;;6.01;40.83;91886.44;2051259;70;20230;-74
2022/12/08 10:30:41;;;;;;;13.60;4.55;;;;;;;6.08;41.18;91896.66;2051283;70;20499;-75
2022/12/08 10:33:18;;;;;;;6.30;3.30;;;;;;;7.18;39.77;91890.81;2051352;70;20177;-75
2022/12/08 10:35:57;;;;;;;5.13;3.05;;;;;;;6.55;39.03;91891.25;2051361;70;20624;-76
2022/12/08 10:38:29;;;;;;;6.13;4.05;;;;;;;7.24;40.30;91888.34;2051279;69;20241;-75
2022/12/08 10:41:03;;;;;;;13.30;6.88;;;;;;;8.99;37.75;91887.03;2051273;69;20173;-74
2022/12/08 10:43:30;;;;;;;11.20;5.45;;;;;;;8.71;38.47;91880.63;2051157;70;20142;-74
2022/12/08 10:46:27;;;;;;;7.15;4.00;;;;;;;10.18;37.63;91876.91;2051344;69;20444;-75
2022/12/08 10:49:10;;;;;;;4.70;3.22;;;;;;;11.48;35.85;91882.25;2051203;70;20555;-73
2022/12/08 10:51:40;;;;;;;6.78;3.60;;;;;;;11.46;32.24;91865.25;2051237;70;20138;-74
2022/12/08 10:54:27;;;;;;;6.32;4.32;;;;;;;11.24;33.27;91862.19;2051237;70;20158;-76
2022/12/08 10:56:54;;;;;;;10.68;6.10;;;;;;;13.14;32.59;91865.06;2051219;70;20582;-76
2022/12/08 10:59:20;;;;;;;8.68;5.40;;;;;;;13.85;29.59;91861.34;2051222;70;20230;-74
2022/12/08 11:01:48;;;;;;;10.43;5.60;;;;;;;14.18;28.88;91860.34;2050676;70;20157;-73
2022/12/08 11:04:20;;;;;;;8.60;5.20;;;;;;;13.00;28.85;91852.50;2051312;70;20146;-75
2022/12/08 11:06:47;;;;;;;15.05;8.00;;;;;;;12.03;29.92;91850.81;2051083;70;20142;-76
2022/12/08 11:09:16;;;;;;;14.30;8.10;;;;;;;11.11;31.26;91843.28;2051322;70;20157;-75
2022/12/08 11:11:54;;;;;;;14.48;7.50;;;;;;;9.21;33.45;91842.56;2050644;70;20177;-74
2022/12/08 11:14:24;;;;;;;17.10;8.27;;;;;;;9.38;32.92;91836.41;2051510;70;20599;-73
2022/12/08 11:17:08;;;;;;;12.52;7.20;;;;;;;8.52;34.00;91836.84;2051835;70;20233;-73
2022/12/08 11:19:54;;;;;;;13.20;7.85;;;;;;;7.39;35.63;91826.28;2051677;70;20304;-73
2022/12/08 11:22:32;;;;;;;16.17;9.20;;;;;;;6.59;37.60;91829.22;2051617;69;20138;-76
2022/12/08 11:25:17;;;;;;;20.08;10.02;;;;;;;6.66;38.15;91828.25;2051740;69;20182;-73
2022/12/08 11:27:46;;;;;;;22.65;10.35;;;;;;;5.55;40.18;91820.66;2051861;69;20133;-72
2022/12/08 11:30:17;;;;;;;26.50;11.18;;;;;;;5.47;41.19;91828.50;2051821;69;20234;-74
2022/12/08 11:32:45;;;;;;;29.73;11.02;;;;;;;5.44;41.68;91820.59;2051721;69;20151;-73
2022/12/08 11:35:22;;;;;;;24.17;10.93;;;;;;;4.78;42.18;91821.88;2051765;70;20142;-75
2022/12/08 11:37:47;;;;;;;20.50;11.02;;;;;;;4.87;42.67;91812.00;2051648;70;20138;-73
2022/12/08 11:40:24;;;;;;;21.33;10.82;;;;;;;4.64;43.18;91812.56;2051811;69;20173;-74
2022/12/08 11:43:14;;;;;;;26.23;10.90;;;;;;;4.49;43.41;91813.66;2051645;69;20152;-73
2022/12/08 11:45:40;;;;;;;15.75;8.27;;;;;;;4.37;43.83;91798.16;2051700;70;20152;-76
2022/12/08 11:48:15;;;;;;;13.25;6.72;;;;;;;4.31;42.73;91801.25;2051495;70;20595;-74